Time;durP1;ratioP1;P1;durP2;ratioP2;P2;SDS_P1;SDS_P2;PMS_P1;PMS_P2;Temp;Humidity;BMP_temperature;BMP_pressure;BME280_temperature;BME280_humidity;BME280_pressure;Samples;Min_cycle;Max_cycle;Signal;HPM_P1;HPM_P2
2021/12/13 00:00:26;;;;;;;4.30;2.38;;;;;;;2.33;100.00;96806.41;5095271;28;25026;-74
2021/12/13 00:03:02;;;;;;;2.58;1.65;;;;;;;2.35;100.00;96800.41;5080694;28;24435;-74
2021/12/13 00:05:36;;;;;;;3.13;2.20;;;;;;;2.38;100.00;96808.06;5072010;28;24422;-74
2021/12/13 00:08:07;;;;;;;3.03;2.40;;;;;;;2.40;100.00;96798.63;5072127;28;24425;-74
2021/12/13 00:10:40;;;;;;;2.30;2.08;;;;;;;2.41;100.00;96805.47;5072577;28;24406;-75
2021/12/13 00:13:13;;;;;;;3.58;2.20;;;;;;;2.41;100.00;96804.59;5072247;28;24480;-74
2021/12/13 00:15:47;;;;;;;3.25;2.42;;;;;;;2.41;100.00;96802.91;5071885;28;24422;-74
2021/12/13 00:18:18;;;;;;;3.58;2.38;;;;;;;2.43;100.00;96797.75;5072009;28;24419;-75
2021/12/13 00:20:49;;;;;;;3.78;2.17;;;;;;;2.46;100.00;96799.44;5085374;28;24815;-74
2021/12/13 00:23:20;;;;;;;3.03;2.42;;;;;;;2.45;100.00;96796.03;5086296;28;24426;-74
2021/12/13 00:25:49;;;;;;;4.13;2.25;;;;;;;2.45;100.00;96805.38;5091904;28;24413;-74
2021/12/13 00:28:19;;;;;;;4.95;2.60;;;;;;;2.42;100.00;96801.19;5091667;28;24967;-74
2021/12/13 00:30:54;;;;;;;7.00;2.95;;;;;;;2.42;100.00;96794.34;5083264;28;24434;-74
2021/12/13 00:33:33;;;;;;;3.22;2.42;;;;;;;2.44;100.00;96802.00;5077114;28;24431;-74
2021/12/13 00:36:04;;;;;;;2.97;2.20;;;;;;;2.38;100.00;96802.09;5071551;28;24483;-74
2021/12/13 00:38:38;;;;;;;4.70;2.60;;;;;;;2.32;100.00;96804.72;5071694;28;24472;-74
2021/12/13 00:41:11;;;;;;;6.72;2.72;;;;;;;2.29;100.00;96807.31;5071414;28;24449;-74
2021/12/13 00:43:43;;;;;;;3.28;2.80;;;;;;;2.31;100.00;96803.88;5071683;28;24425;-74
2021/12/13 00:46:13;;;;;;;3.20;2.28;;;;;;;2.36;100.00;96806.38;5071286;28;24418;-74
2021/12/13 00:48:43;;;;;;;3.58;2.40;;;;;;;2.42;100.00;96809.69;5071731;28;24445;-74
2021/12/13 00:51:13;;;;;;;3.67;2.63;;;;;;;2.42;100.00;96809.69;5071371;28;24422;-74
2021/12/13 00:53:43;;;;;;;3.10;2.08;;;;;;;2.45;100.00;96808.81;5071241;28;24430;-74
2021/12/13 00:56:46;;;;;;;3.47;2.53;;;;;;;2.42;100.00;96807.13;5070751;28;24962;-76
2021/12/13 00:59:21;;;;;;;5.45;2.80;;;;;;;2.35;100.00;96813.19;5071890;28;24422;-73
2021/12/13 01:01:53;;;;;;;3.58;2.40;;;;;;;2.31;100.00;96811.56;5082772;28;25022;-75
2021/12/13 01:04:19;;;;;;;4.32;2.45;;;;;;;2.33;100.00;96814.09;5091271;28;24982;-75
2021/12/13 01:07:19;;;;;;;3.70;2.40;;;;;;;2.33;100.00;96808.97;5091081;28;24426;-75
2021/12/13 01:10:52;;;;;;;2.85;2.45;;;;;;;2.26;100.00;96818.41;5091027;28;24986;-75
2021/12/13 01:13:23;;;;;;;3.75;2.17;;;;;;;2.26;100.00;96809.91;5091331;28;24421;-74
2021/12/13 01:15:56;;;;;;;3.05;2.20;;;;;;;2.30;100.00;96817.53;5090826;28;24990;-74
2021/12/13 01:18:30;;;;;;;5.28;2.17;;;;;;;2.25;100.00;96818.47;5084101;28;24526;-74
2021/12/13 01:21:13;;;;;;;3.58;2.17;;;;;;;2.22;100.00;96827.00;5090633;28;24461;-75
2021/12/13 01:23:45;;;;;;;2.97;2.20;;;;;;;2.27;100.00;96826.97;5091156;28;24418;-74
2021/12/13 01:26:28;;;;;;;3.58;2.05;;;;;;;2.28;100.00;96826.94;5090831;28;25010;-74
2021/12/13 01:29:04;;;;;;;2.78;2.05;;;;;;;2.30;100.00;96832.00;5090848;28;24905;-74
2021/12/13 01:31:34;;;;;;;3.25;2.30;;;;;;;2.33;100.00;96832.81;5082535;28;24445;-74
2021/12/13 01:34:03;;;;;;;2.83;2.10;;;;;;;2.36;100.00;96837.91;5070817;28;24429;-73
2021/12/13 01:36:44;;;;;;;2.78;2.08;;;;;;;2.37;100.00;96831.94;5070453;28;24773;-74
2021/12/13 01:39:14;;;;;;;2.00;1.73;;;;;;;2.37;100.00;96831.06;5069926;28;24524;-74
2021/12/13 01:41:45;;;;;;;1.90;1.70;;;;;;;2.35;100.00;96832.81;5070991;28;24484;-74
2021/12/13 01:44:15;;;;;;;3.72;1.98;;;;;;;2.39;100.00;96834.47;5070452;28;24815;-74
2021/12/13 01:46:46;;;;;;;2.13;1.70;;;;;;;2.43;100.00;96841.22;5070198;28;24955;-74
2021/12/13 01:49:14;;;;;;;3.20;2.17;;;;;;;2.40;100.00;96834.44;5070372;28;24844;-74
2021/12/13 01:51:41;;;;;;;1.95;1.73;;;;;;;2.42;100.00;96830.16;5070509;28;24415;-75
2021/12/13 01:54:13;;;;;;;2.05;1.73;;;;;;;2.43;100.00;96831.00;5070205;28;24434;-75
2021/12/13 01:56:46;;;;;;;3.35;1.95;;;;;;;2.46;100.00;96832.66;5070235;28;24780;-75
2021/12/13 01:59:47;;;;;;;3.30;1.90;;;;;;;2.42;100.00;96829.31;5071153;28;24508;-75
2021/12/13 02:02:21;;;;;;;3.83;1.95;;;;;;;2.36;100.00;96825.13;5078498;28;24831;-75
2021/12/13 02:04:58;;;;;;;3.08;1.88;;;;;;;2.38;100.00;96823.41;5070181;28;24511;-73
2021/12/13 02:07:27;;;;;;;2.90;1.90;;;;;;;2.36;100.00;96824.28;5070285;28;24423;-75
2021/12/13 02:09:56;;;;;;;2.05;1.80;;;;;;;2.38;100.00;96830.22;5070424;28;24982;-74
2021/12/13 02:12:28;;;;;;;3.00;1.83;;;;;;;2.27;100.00;96830.34;5070320;28;24792;-74
2021/12/13 02:17:40;;;;;;;2.97;2.08;;;;;;;2.26;100.00;96836.31;5069882;28;24423;-74
2021/12/13 02:20:11;;;;;;;2.80;2.03;;;;;;;2.26;100.00;96835.47;5069890;28;24823;-74
2021/12/13 02:22:41;;;;;;;3.13;1.98;;;;;;;2.22;100.00;96833.81;5070054;28;25010;-75
2021/12/13 02:25:17;;;;;;;3.42;1.85;;;;;;;2.23;100.00;96840.66;5069859;28;24414;-74
2021/12/13 02:27:47;;;;;;;2.60;1.93;;;;;;;2.27;100.00;96832.06;5070112;28;24479;-75
2021/12/13 02:30:19;;;;;;;2.90;1.58;;;;;;;2.25;100.00;96833.78;5079249;28;24434;-75
2021/12/13 02:32:47;;;;;;;3.33;1.80;;;;;;;2.18;100.00;96838.13;5081755;28;24784;-75
2021/12/13 02:35:15;;;;;;;2.42;1.75;;;;;;;2.20;100.00;96835.56;5089919;28;24432;-75
2021/12/13 02:37:43;;;;;;;2.22;1.90;;;;;;;2.15;100.00;96831.38;5090222;28;24418;-75
2021/12/13 02:40:12;;;;;;;12.43;8.32;;;;;;;2.18;100.00;96835.56;5090193;28;24947;-75
2021/12/13 02:42:38;;;;;;;16.98;10.55;;;;;;;2.17;100.00;96839.00;5089992;28;25037;-74
2021/12/13 02:45:13;;;;;;;5.63;3.88;;;;;;;2.18;100.00;96830.47;5090204;28;24421;-75
2021/12/13 02:47:44;;;;;;;3.55;2.08;;;;;;;2.18;100.00;96828.75;5090169;28;24422;-75
2021/12/13 02:50:14;;;;;;;5.50;1.90;;;;;;;2.21;100.00;96834.69;5091399;28;24543;-74
2021/12/13 02:52:43;;;;;;;2.22;1.58;;;;;;;2.24;100.00;96820.16;5094105;28;24413;-75
2021/12/13 02:55:13;;;;;;;3.45;1.77;;;;;;;2.21;100.00;96820.22;5093685;28;24417;-75
2021/12/13 02:57:44;;;;;;;1.73;1.50;;;;;;;2.24;100.00;96827.84;5094178;28;24464;-75
2021/12/13 03:00:16;;;;;;;2.83;2.00;;;;;;;2.15;100.00;96828.81;5093660;28;24978;-74
2021/12/13 03:02:48;;;;;;;2.25;1.70;;;;;;;2.16;100.00;96825.38;5085114;28;24521;-75
2021/12/13 03:05:19;;;;;;;2.80;1.90;;;;;;;2.17;100.00;96829.63;5093640;28;24776;-75
2021/12/13 03:07:51;;;;;;;5.25;1.73;;;;;;;2.16;100.00;96827.09;5093920;28;24784;-75
2021/12/13 03:10:21;;;;;;;4.57;1.98;;;;;;;2.17;100.00;96833.91;5093832;28;24421;-75
2021/12/13 03:12:48;;;;;;;2.10;1.70;;;;;;;2.19;100.00;96834.72;5093692;28;24410;-75
2021/12/13 03:15:19;;;;;;;2.80;1.83;;;;;;;2.24;100.00;96825.28;5093370;28;24459;-75
2021/12/13 03:17:53;;;;;;;1.77;1.40;;;;;;;2.25;100.00;96824.41;5093811;28;24421;-75
2021/12/13 03:20:30;;;;;;;2.13;1.70;;;;;;;2.30;100.00;96821.78;5087976;28;24458;-74
2021/12/13 03:23:16;;;;;;;2.03;1.40;;;;;;;2.35;100.00;96832.81;5090138;28;24446;-73
2021/12/13 03:26:03;;;;;;;2.13;1.70;;;;;;;2.30;100.00;96832.00;5072979;28;24437;-74
2021/12/13 03:28:44;;;;;;;2.45;1.52;;;;;;;2.29;100.00;96825.22;5080684;28;24430;-74
2021/12/13 03:31:14;;;;;;;1.77;1.58;;;;;;;2.26;100.00;96830.38;5087956;28;24422;-74
2021/12/13 03:33:49;;;;;;;3.10;2.38;;;;;;;2.27;100.00;96830.34;5090612;28;24438;-74
2021/12/13 03:36:19;;;;;;;4.15;2.35;;;;;;;2.29;100.00;96830.31;5091686;28;24472;-74
2021/12/13 03:38:51;;;;;;;5.60;2.45;;;;;;;2.29;100.00;96830.31;5072670;28;24960;-74
2021/12/13 03:41:21;;;;;;;2.65;2.10;;;;;;;2.34;100.00;96834.53;5072917;28;24430;-74
2021/12/13 03:43:51;;;;;;;3.78;2.15;;;;;;;2.36;100.00;96837.06;5072979;28;24443;-74
2021/12/13 03:46:21;;;;;;;2.35;1.90;;;;;;;2.36;100.00;96839.59;5072535;28;24418;-74
2021/12/13 03:48:51;;;;;;;2.57;1.70;;;;;;;2.38;100.00;96835.34;5072732;28;24490;-74
2021/12/13 03:51:22;;;;;;;2.20;1.50;;;;;;;2.35;100.00;96840.47;5072887;28;24422;-75
2021/12/13 03:53:54;;;;;;;3.33;1.75;;;;;;;2.40;100.00;96839.53;5072675;28;24820;-75
2021/12/13 03:56:23;;;;;;;2.40;1.60;;;;;;;2.42;100.00;96831.88;5072345;28;24427;-75
2021/12/13 03:58:53;;;;;;;2.00;1.40;;;;;;;2.42;100.00;96826.75;5072505;28;24468;-75
2021/12/13 04:01:23;;;;;;;2.20;1.65;;;;;;;2.41;100.00;96828.47;5081654;28;24442;-75
2021/12/13 04:03:53;;;;;;;3.38;1.70;;;;;;;2.45;100.00;96831.84;5073914;28;24434;-75
2021/12/13 04:06:21;;;;;;;1.88;1.42;;;;;;;2.47;100.00;96827.53;5073159;28;24434;-75
2021/12/13 04:08:52;;;;;;;1.70;1.30;;;;;;;2.47;100.00;96831.78;5091803;28;24450;-75
2021/12/13 04:11:19;;;;;;;2.05;1.60;;;;;;;2.49;100.00;96841.16;5084044;28;24483;-74
2021/12/13 04:13:48;;;;;;;1.83;1.50;;;;;;;2.49;100.00;96833.47;5092288;28;24430;-75
2021/12/13 04:16:29;;;;;;;2.40;1.60;;;;;;;2.49;100.00;96840.31;5092348;28;24429;-75
2021/12/13 04:19:07;;;;;;;2.53;1.60;;;;;;;2.45;100.00;96841.19;5092239;28;24453;-75
2021/12/13 04:21:47;;;;;;;2.85;1.50;;;;;;;2.46;100.00;96838.63;5092152;28;24453;-75
2021/12/13 04:24:20;;;;;;;3.10;1.63;;;;;;;2.48;100.00;96841.16;5092124;28;24410;-75
2021/12/13 04:26:51;;;;;;;3.92;1.55;;;;;;;2.50;100.00;96842.81;5092121;28;24430;-75
2021/12/13 04:29:21;;;;;;;2.05;1.70;;;;;;;2.50;100.00;96845.38;5092180;28;24475;-75
2021/12/13 04:31:49;;;;;;;2.50;1.50;;;;;;;2.45;100.00;96841.19;5081551;28;24449;-75
2021/12/13 04:34:16;;;;;;;2.50;1.70;;;;;;;2.43;100.00;96848.88;5071925;28;25025;-75
2021/12/13 04:36:45;;;;;;;2.05;1.65;;;;;;;2.42;100.00;96852.31;5071196;28;25025;-75
2021/12/13 04:39:18;;;;;;;2.23;1.43;;;;;;;2.46;100.00;96846.28;5071847;28;24426;-75
2021/12/13 04:41:46;;;;;;;1.88;1.50;;;;;;;2.48;100.00;96849.66;5071681;28;24785;-75
2021/12/13 04:44:18;;;;;;;1.90;1.50;;;;;;;2.52;100.00;96843.66;5071667;28;24437;-75
2021/12/13 04:46:49;;;;;;;4.20;1.50;;;;;;;2.54;100.00;96841.06;5071461;28;24777;-74
2021/12/13 04:49:19;;;;;;;2.33;1.60;;;;;;;2.55;100.00;96841.03;5071268;28;24425;-74
2021/12/13 04:51:52;;;;;;;2.33;1.58;;;;;;;2.54;100.00;96847.03;5071544;28;24816;-74
2021/12/13 04:54:20;;;;;;;1.95;1.45;;;;;;;2.55;100.00;96843.59;5071443;28;24418;-74
2021/12/13 04:56:48;;;;;;;2.05;1.85;;;;;;;2.56;100.00;96845.31;5071099;28;24422;-75
2021/12/13 04:59:17;;;;;;;3.03;2.70;;;;;;;2.55;100.00;96848.72;5072267;28;24799;-75
2021/12/13 05:01:46;;;;;;;2.35;2.10;;;;;;;2.54;100.00;96844.47;5081874;28;24818;-74
2021/12/13 05:04:13;;;;;;;3.08;2.28;;;;;;;2.56;100.00;96844.44;5071378;28;24431;-75
2021/12/13 05:06:42;;;;;;;2.70;2.05;;;;;;;2.50;100.00;96842.00;5070776;28;24484;-75
2021/12/13 05:09:11;;;;;;;2.13;1.90;;;;;;;2.44;100.00;96840.34;5071094;28;24429;-74
2021/12/13 05:11:44;;;;;;;2.40;1.50;;;;;;;2.40;100.00;96854.88;5071120;28;24418;-74
2021/12/13 05:14:11;;;;;;;2.10;1.60;;;;;;;2.40;100.00;96849.75;5070031;28;24816;-74
2021/12/13 05:16:42;;;;;;;4.13;1.90;;;;;;;2.36;100.00;96852.38;5070825;28;24418;-74
2021/12/13 05:19:11;;;;;;;1.58;1.35;;;;;;;2.27;100.00;96852.53;5070850;28;24437;-75
2021/12/13 05:21:41;;;;;;;2.50;1.40;;;;;;;2.24;100.00;96855.13;5070949;28;24464;-75
2021/12/13 05:24:15;;;;;;;1.75;1.38;;;;;;;2.27;100.00;96853.38;5070855;28;24480;-75
2021/12/13 05:26:52;;;;;;;2.92;1.63;;;;;;;2.31;100.00;96857.56;5070385;28;24472;-75
2021/12/13 05:29:26;;;;;;;2.17;1.33;;;;;;;2.31;100.00;96865.25;5072428;28;24434;-75
2021/12/13 05:31:55;;;;;;;2.60;2.38;;;;;;;2.22;100.00;96867.91;5087262;28;24521;-75
2021/12/13 05:34:32;;;;;;;2.70;2.00;;;;;;;2.10;100.00;96865.50;5097524;28;24446;-75
2021/12/13 05:37:01;;;;;;;4.32;1.90;;;;;;;2.10;100.00;96870.59;5098769;28;24430;-75
2021/12/13 05:39:28;;;;;;;2.13;1.42;;;;;;;2.12;100.00;96868.91;5097151;28;24852;-74
2021/12/13 05:42:01;;;;;;;1.65;1.20;;;;;;;2.12;100.00;96885.06;5102054;28;24418;-74
2021/12/13 05:44:32;;;;;;;1.90;1.30;;;;;;;2.08;100.00;96883.41;5110880;28;24429;-75
2021/12/13 05:47:00;;;;;;;1.80;1.40;;;;;;;2.06;100.00;96889.41;5111120;28;24421;-74
2021/12/13 05:49:32;;;;;;;3.45;1.48;;;;;;;2.08;100.00;96890.25;5104504;28;24434;-74
2021/12/13 05:52:08;;;;;;;4.30;3.25;;;;;;;2.13;100.00;96896.13;5086454;28;24476;-75
2021/12/13 05:54:38;;;;;;;11.50;7.85;;;;;;;2.12;100.00;96890.19;5088175;28;24488;-75
2021/12/13 05:57:13;;;;;;;3.97;2.57;;;;;;;2.07;100.00;96891.09;5090215;28;24491;-75
2021/12/13 05:59:53;;;;;;;2.20;1.80;;;;;;;2.13;100.00;96886.75;5086336;28;24771;-74
2021/12/13 06:02:31;;;;;;;2.58;1.70;;;;;;;2.10;100.00;96891.06;5084129;28;24458;-74
2021/12/13 06:05:03;;;;;;;1.67;1.50;;;;;;;2.09;100.00;96890.22;5090422;28;24495;-74
2021/12/13 06:07:32;;;;;;;4.20;1.90;;;;;;;2.16;100.00;96896.09;5090605;28;24422;-74
2021/12/13 06:10:01;;;;;;;2.23;2.03;;;;;;;2.20;100.00;96892.66;5090410;28;24426;-74
2021/12/13 06:12:34;;;;;;;2.17;1.98;;;;;;;2.24;100.00;96896.00;5090322;28;24410;-74
2021/12/13 06:15:23;;;;;;;1.58;1.48;;;;;;;2.25;100.00;96890.03;5090553;28;24775;-74
2021/12/13 06:17:56;;;;;;;3.30;1.80;;;;;;;2.28;100.00;96890.00;5090788;28;24421;-74
2021/12/13 06:20:27;;;;;;;13.10;7.63;;;;;;;2.26;100.00;96890.00;5090083;28;24799;-74
2021/12/13 06:23:04;;;;;;;44.33;22.50;;;;;;;2.23;100.00;96891.78;5090433;28;24442;-75
2021/12/13 06:25:31;;;;;;;34.58;18.48;;;;;;;2.23;100.00;96890.06;5092231;28;24421;-73
2021/12/13 06:28:00;;;;;;;23.75;11.93;;;;;;;2.25;100.00;96890.88;5094882;28;24463;-75
2021/12/13 06:30:31;;;;;;;7.85;5.40;;;;;;;2.22;100.00;96895.16;5094292;28;24509;-75
2021/12/13 06:33:00;;;;;;;5.07;4.00;;;;;;;2.20;100.00;96895.19;5085082;28;24484;-75
2021/12/13 06:35:37;;;;;;;4.88;3.15;;;;;;;2.25;100.00;96897.69;5083364;28;24415;-75
2021/12/13 06:38:43;;;;;;;3.60;2.60;;;;;;;2.28;100.00;96903.63;5085474;28;24469;-75
2021/12/13 06:41:32;;;;;;;3.75;3.40;;;;;;;2.30;100.00;96904.47;5087434;28;24823;-76
2021/12/13 06:44:03;;;;;;;4.03;3.00;;;;;;;2.39;100.00;96896.66;5085678;28;24489;-75
2021/12/13 06:46:36;;;;;;;3.60;2.10;;;;;;;2.55;100.00;96896.47;5073968;28;24468;-76
2021/12/13 06:49:11;;;;;;;2.83;1.88;;;;;;;2.58;100.00;96902.38;5073996;28;24823;-75
2021/12/13 06:51:41;;;;;;;3.03;1.77;;;;;;;2.49;100.00;96902.50;5074141;28;24615;-75
2021/12/13 06:54:10;;;;;;;2.77;1.60;;;;;;;2.45;100.00;96905.09;5073674;28;24782;-76
2021/12/13 06:56:41;;;;;;;4.28;3.03;;;;;;;2.32;100.00;96906.97;5073551;28;24971;-77
2021/12/13 06:59:15;;;;;;;6.10;4.18;;;;;;;2.27;100.00;96901.94;5073581;28;24421;-76
2021/12/13 07:01:53;;;;;;;5.78;3.80;;;;;;;2.28;100.00;96910.44;5081793;28;24437;-77
2021/12/13 07:04:19;;;;;;;6.28;3.05;;;;;;;2.27;100.00;96908.75;5079009;28;24453;-76
2021/12/13 07:06:46;;;;;;;4.20;2.35;;;;;;;2.23;100.00;96899.44;5073000;28;24828;-76
2021/12/13 07:09:16;;;;;;;4.10;2.30;;;;;;;2.26;100.00;96901.94;5073467;28;24488;-76
2021/12/13 07:11:49;;;;;;;2.65;1.85;;;;;;;2.30;100.00;96907.00;5073106;28;24419;-76
2021/12/13 07:14:21;;;;;;;2.75;2.00;;;;;;;2.37;100.00;96912.88;5073301;28;24427;-76
2021/12/13 07:16:51;;;;;;;2.50;1.73;;;;;;;2.37;100.00;96907.75;5073111;28;24419;-76
2021/12/13 07:19:20;;;;;;;5.63;2.03;;;;;;;2.38;100.00;96914.59;5073254;28;24442;-75
2021/12/13 07:21:56;;;;;;;3.67;2.37;;;;;;;2.41;100.00;96911.97;5073674;28;24485;-76
2021/12/13 07:24:32;;;;;;;2.83;1.95;;;;;;;2.44;100.00;96919.59;5073455;28;24473;-75
2021/12/13 07:27:04;;;;;;;3.17;2.20;;;;;;;2.50;100.00;96931.50;5073386;28;24430;-76
2021/12/13 07:29:39;;;;;;;4.55;2.10;;;;;;;2.35;100.00;96927.41;5073222;28;24484;-75
2021/12/13 07:32:10;;;;;;;2.45;1.80;;;;;;;2.35;100.00;96927.41;5080188;28;24427;-76
2021/12/13 07:34:53;;;;;;;5.65;1.70;;;;;;;2.31;100.00;96924.03;5083411;28;24819;-76
2021/12/13 07:37:34;;;;;;;3.03;1.80;;;;;;;2.32;100.00;96928.28;5081634;28;24480;-75
2021/12/13 07:40:15;;;;;;;3.38;1.80;;;;;;;2.47;100.00;96927.25;5092895;28;24792;-72
2021/12/13 07:42:52;;;;;;;4.55;2.05;;;;;;;2.51;100.00;96928.91;5093095;28;24414;-75
2021/12/13 07:45:31;;;;;;;3.72;2.17;;;;;;;2.53;100.00;96937.41;5092663;28;24784;-75
2021/12/13 07:47:59;;;;;;;3.03;2.20;;;;;;;2.44;100.00;96937.50;5092859;28;24423;-76
2021/12/13 07:50:27;;;;;;;4.90;3.08;;;;;;;2.42;100.00;96941.81;5092572;28;24788;-76
2021/12/13 07:52:58;;;;;;;4.97;3.00;;;;;;;2.43;100.00;96941.78;5092945;28;24413;-76
2021/12/13 07:55:27;;;;;;;5.47;3.10;;;;;;;2.48;100.00;96946.00;5092811;28;24425;-75
2021/12/13 07:57:56;;;;;;;3.87;2.97;;;;;;;2.54;100.00;96938.25;5093040;28;24430;-75
2021/12/13 08:00:26;;;;;;;7.88;3.30;;;;;;;2.56;100.00;96944.19;5093228;28;24441;-75
2021/12/13 08:02:57;;;;;;;3.75;2.70;;;;;;;2.59;100.00;96949.25;5091945;28;24503;-76
2021/12/13 08:05:27;;;;;;;6.00;2.70;;;;;;;2.64;100.00;96943.22;5092181;28;25005;-76
2021/12/13 08:07:58;;;;;;;4.78;2.70;;;;;;;2.67;100.00;96943.19;5092314;28;25024;-77
2021/12/13 08:10:28;;;;;;;5.57;3.05;;;;;;;2.64;100.00;96948.34;5092624;28;24448;-76
2021/12/13 08:13:00;;;;;;;5.90;3.00;;;;;;;2.78;100.00;96950.75;5092625;28;24589;-75
2021/12/13 08:15:30;;;;;;;5.80;3.05;;;;;;;2.84;100.00;96947.22;5087771;28;24521;-75
2021/12/13 08:18:00;;;;;;;5.32;2.92;;;;;;;2.73;100.00;96946.53;5083693;28;24437;-74
2021/12/13 08:20:30;;;;;;;5.40;2.72;;;;;;;2.78;100.00;96944.75;5091953;28;24441;-74
2021/12/13 08:22:59;;;;;;;6.32;2.90;;;;;;;2.81;100.00;96953.22;5092323;28;24418;-76
2021/12/13 08:25:30;;;;;;;3.55;2.83;;;;;;;2.80;100.00;96950.69;5091895;28;24425;-76
2021/12/13 08:28:00;;;;;;;4.00;2.80;;;;;;;2.77;100.00;96950.75;5091841;28;24468;-76
2021/12/13 08:30:30;;;;;;;5.90;2.72;;;;;;;2.78;100.00;96947.31;5086138;28;24423;-75
2021/12/13 08:33:03;;;;;;;6.45;3.28;;;;;;;2.79;100.00;96946.47;5081179;28;25014;-76
2021/12/13 08:35:53;;;;;;;5.40;3.28;;;;;;;2.83;100.00;96961.75;5071552;28;24430;-75
2021/12/13 08:38:36;;;;;;;9.45;3.47;;;;;;;2.91;100.00;96962.47;5071407;28;24971;-75
2021/12/13 08:41:08;;;;;;;5.97;3.10;;;;;;;2.97;100.00;96959.00;5071769;28;24445;-76
2021/12/13 08:43:41;;;;;;;11.80;4.30;;;;;;;2.91;100.00;96962.47;5071462;28;24438;-75
2021/12/13 08:46:09;;;;;;;10.45;4.80;;;;;;;2.85;100.00;96964.28;5071200;28;24963;-76
2021/12/13 08:48:46;;;;;;;7.95;4.05;;;;;;;2.86;100.00;96964.28;5071011;28;24979;-76
2021/12/13 08:51:20;;;;;;;4.82;3.28;;;;;;;2.90;100.00;96970.19;5076491;28;24483;-75
2021/12/13 08:53:59;;;;;;;5.75;3.50;;;;;;;2.91;100.00;96965.03;5082408;28;24429;-76
2021/12/13 08:56:26;;;;;;;5.22;3.60;;;;;;;2.95;100.00;96970.97;5091150;28;24859;-76
2021/12/13 08:58:58;;;;;;;5.55;4.15;;;;;;;2.97;100.00;96971.81;5091409;28;24471;-76
2021/12/13 09:01:28;;;;;;;25.50;4.70;;;;;;;2.96;100.00;96969.25;5082752;28;25043;-76
2021/12/13 09:03:56;;;;;;;6.32;4.88;;;;;;;3.04;100.00;96968.28;5079272;28;24980;-76
2021/12/13 09:06:30;;;;;;;5.60;4.70;;;;;;;3.13;100.00;96969.88;5070959;28;24414;-76
2021/12/13 09:09:04;;;;;;;4.53;3.23;;;;;;;3.13;100.00;96970.72;5071039;28;24429;-75
2021/12/13 09:11:34;;;;;;;4.35;3.00;;;;;;;3.13;100.00;96972.44;5070957;28;24419;-75
2021/12/13 09:14:12;;;;;;;3.50;2.63;;;;;;;3.16;100.00;96967.28;5071332;28;24411;-75
2021/12/13 09:16:45;;;;;;;4.33;3.03;;;;;;;3.20;100.00;96978.31;5070711;28;25063;-75
2021/12/13 09:19:17;;;;;;;3.10;2.70;;;;;;;3.25;100.00;96989.31;5071485;28;24488;-75
2021/12/13 09:21:57;;;;;;;4.25;3.13;;;;;;;3.33;100.00;96983.22;5070876;28;24418;-75
2021/12/13 09:24:28;;;;;;;3.63;2.70;;;;;;;3.39;100.00;96979.72;5070508;28;24438;-74
2021/12/13 09:27:05;;;;;;;3.67;2.72;;;;;;;3.47;100.00;96979.59;5070636;28;24415;-75
2021/12/13 09:29:31;;;;;;;3.27;2.50;;;;;;;3.48;100.00;96987.25;5070631;28;24462;-75
2021/12/13 09:31:58;;;;;;;3.95;2.83;;;;;;;3.52;100.00;96988.06;5088550;28;24818;-74
2021/12/13 09:34:26;;;;;;;4.10;2.42;;;;;;;3.61;100.00;96981.06;5075256;28;24968;-75
2021/12/13 09:36:56;;;;;;;3.35;2.55;;;;;;;3.73;100.00;96981.75;5070527;28;24460;-75
2021/12/13 09:39:25;;;;;;;3.38;2.60;;;;;;;3.80;100.00;96975.66;5070732;28;24785;-76
2021/12/13 09:41:58;;;;;;;3.90;2.60;;;;;;;3.86;100.00;96970.44;5070650;28;24418;-75
2021/12/13 09:44:31;;;;;;;3.58;2.95;;;;;;;3.93;100.00;96979.72;5070233;28;24438;-75
2021/12/13 09:47:04;;;;;;;4.00;3.28;;;;;;;3.85;100.00;96972.13;5070138;28;24492;-75
2021/12/13 09:49:37;;;;;;;5.25;3.25;;;;;;;3.88;100.00;96974.63;5073944;28;24527;-75
2021/12/13 09:52:08;;;;;;;5.32;3.20;;;;;;;3.83;100.00;96971.31;5083033;28;24437;-75
2021/12/13 09:54:38;;;;;;;4.70;3.63;;;;;;;3.83;100.00;96965.34;5090508;28;24437;-76
2021/12/13 09:57:15;;;;;;;4.35;3.50;;;;;;;3.84;100.00;96957.63;5085753;28;24865;-76
2021/12/13 09:59:45;;;;;;;3.85;2.80;;;;;;;3.90;100.00;96958.41;5081030;28;24439;-75
2021/12/13 10:02:19;;;;;;;4.22;3.17;;;;;;;3.90;100.00;96954.13;5090399;28;24433;-75
2021/12/13 10:04:49;;;;;;;6.83;3.07;;;;;;;3.88;100.00;96953.28;5071977;28;24482;-75
2021/12/13 10:07:22;;;;;;;6.32;2.90;;;;;;;3.90;100.00;96959.25;5070200;28;24492;-76
2021/12/13 10:09:52;;;;;;;4.20;2.30;;;;;;;3.95;100.00;96954.03;5070439;28;24998;-75
2021/12/13 10:12:23;;;;;;;4.90;2.30;;;;;;;4.03;100.00;96949.63;5070901;28;24425;-75
2021/12/13 10:14:53;;;;;;;2.97;2.17;;;;;;;4.00;100.00;96953.06;5070502;28;24530;-75
2021/12/13 10:17:22;;;;;;;2.78;2.33;;;;;;;3.96;100.00;96956.56;5081360;28;24438;-74
2021/12/13 10:19:53;;;;;;;3.28;2.65;;;;;;;4.09;100.00;96954.66;5101290;28;24441;-75
2021/12/13 10:22:23;;;;;;;3.80;2.88;;;;;;;4.11;100.00;96945.19;5105046;28;24417;-76
2021/12/13 10:24:56;;;;;;;5.55;3.53;;;;;;;4.15;100.00;96951.94;5110810;28;24437;-75
2021/12/13 10:27:23;;;;;;;4.25;2.78;;;;;;;4.17;100.00;96947.66;5110722;28;24790;-75
2021/12/13 10:29:54;;;;;;;3.40;2.70;;;;;;;4.35;100.00;96946.47;5108714;28;24424;-75
2021/12/13 10:32:24;;;;;;;3.72;2.67;;;;;;;4.49;100.00;96943.63;5080361;28;24999;-76
2021/12/13 10:34:56;;;;;;;2.88;2.25;;;;;;;4.55;100.00;96943.50;5092169;28;24431;-75
2021/12/13 10:37:26;;;;;;;3.92;3.10;;;;;;;4.52;100.00;96934.13;5100865;28;24990;-73
2021/12/13 10:39:57;;;;;;;3.50;2.60;;;;;;;4.55;100.00;96934.06;5109581;28;24486;-73
2021/12/13 10:42:27;;;;;;;5.90;3.00;;;;;;;4.64;100.00;96932.22;5110642;28;24414;-73
2021/12/13 10:44:54;;;;;;;4.97;3.00;;;;;;;4.68;100.00;96932.13;5110675;28;24468;-73
2021/12/13 10:47:26;;;;;;;6.88;2.85;;;;;;;4.77;100.00;96931.06;5094509;28;24979;-73
2021/12/13 10:49:55;;;;;;;3.17;2.50;;;;;;;4.88;100.00;96923.97;5093976;28;24991;-73
2021/12/13 10:52:27;;;;;;;3.70;2.83;;;;;;;4.99;100.00;96927.16;5099642;28;24438;-74
2021/12/13 10:54:59;;;;;;;3.53;2.95;;;;;;;4.95;100.00;96929.81;5109959;28;24429;-73
2021/12/13 10:57:28;;;;;;;4.88;3.33;;;;;;;4.98;100.00;96925.47;5110367;28;24418;-72
2021/12/13 10:59:55;;;;;;;4.20;2.80;;;;;;;5.01;100.00;96922.84;5107896;28;24549;-74
2021/12/13 11:02:26;;;;;;;4.82;2.80;;;;;;;5.14;100.00;96920.81;5089404;28;25062;-73
2021/12/13 11:04:57;;;;;;;4.65;2.90;;;;;;;5.14;100.00;96919.97;5070779;28;24496;-74
2021/12/13 11:07:25;;;;;;;10.18;3.88;;;;;;;5.19;100.00;96923.28;5070028;28;24414;-75
2021/12/13 11:09:56;;;;;;;11.60;5.18;;;;;;;5.26;100.00;96922.25;5069883;28;24549;-74
2021/12/13 11:12:28;;;;;;;7.80;3.55;;;;;;;5.25;100.00;96921.41;5072792;28;24426;-75
2021/12/13 11:14:59;;;;;;;4.57;2.80;;;;;;;5.28;100.00;96918.78;5073454;28;24414;-74
2021/12/13 11:17:28;;;;;;;5.87;4.13;;;;;;;5.33;100.00;96916.09;5073165;28;24418;-74
2021/12/13 11:20:01;;;;;;;5.50;3.40;;;;;;;5.33;100.00;96901.53;5072906;28;24434;-75
2021/12/13 11:22:30;;;;;;;7.80;3.45;;;;;;;5.33;100.00;96904.09;5073202;28;24434;-75
2021/12/13 11:25:03;;;;;;;5.85;2.47;;;;;;;5.34;100.00;96897.25;5073254;28;24449;-75
2021/12/13 11:27:34;;;;;;;2.80;1.90;;;;;;;5.37;100.00;96896.31;5073500;28;24488;-76
2021/12/13 11:30:06;;;;;;;6.75;4.78;;;;;;;5.41;100.00;96900.50;5076508;28;24426;-74
2021/12/13 11:33:09;;;;;;;6.13;5.35;;;;;;;5.39;100.00;96897.97;5090631;28;24820;-74
2021/12/13 11:36:05;;;;;;;8.52;4.43;;;;;;;5.41;100.00;96903.91;5102691;28;24425;-74
2021/12/13 11:39:05;;;;;;;6.05;4.45;;;;;;;5.38;100.00;96901.44;5093772;28;24434;-75
2021/12/13 11:42:15;;;;;;;9.50;8.32;;;;;;;5.39;100.00;96897.97;5059225;28;24442;-76
2021/12/13 11:44:55;;;;;;;4.82;3.30;;;;;;;5.39;100.00;96897.13;5096211;28;24456;-76
2021/12/13 11:47:57;;;;;;;6.68;4.70;;;;;;;5.34;100.00;96902.41;5097363;28;25010;-76
2021/12/13 11:51:06;;;;;;;8.10;6.97;;;;;;;5.38;100.00;96901.44;5096730;28;24538;-76
2021/12/13 11:53:52;;;;;;;4.50;3.83;;;;;;;5.43;100.00;96891.88;5048911;28;24505;-75
2021/12/13 11:56:47;;;;;;;2.78;1.95;;;;;;;5.43;100.00;96891.03;5088065;28;24976;-75
2021/12/13 11:59:35;;;;;;;4.60;3.72;;;;;;;5.44;100.00;96897.84;5090619;28;24445;-75
2021/12/13 12:02:08;;;;;;;5.93;4.85;;;;;;;5.45;100.00;96894.41;5079640;28;24441;-75
2021/12/13 12:05:24;;;;;;;3.10;2.70;;;;;;;5.47;100.00;96900.34;5089868;28;25062;-75